sensor_id;sensor_type;location;lat;lon;timestamp;P1;durP1;ratioP1;P2;durP2;ratioP2
17725;SDS011;8983;53.156;17.960;2023-07-30T00:00:16;0.50;;;0.50;;
17725;SDS011;8983;53.156;17.960;2023-07-30T00:02:44;0.20;;;0.20;;
17725;SDS011;8983;53.156;17.960;2023-07-30T00:05:12;0.30;;;0.30;;
17725;SDS011;8983;53.156;17.960;2023-07-30T00:07:40;0.30;;;0.30;;
17725;SDS011;8983;53.156;17.960;2023-07-30T00:10:09;0.30;;;0.30;;
17725;SDS011;8983;53.156;17.960;2023-07-30T00:12:37;0.30;;;0.30;;
17725;SDS011;8983;53.156;17.960;2023-07-30T00:15:08;0.30;;;0.30;;
17725;SDS011;8983;53.156;17.960;2023-07-30T00:17:37;0.20;;;0.20;;
17725;SDS011;8983;53.156;17.960;2023-07-30T00:20:05;0.30;;;0.30;;
17725;SDS011;8983;53.156;17.960;2023-07-30T00:22:35;0.20;;;0.20;;
17725;SDS011;8983;53.156;17.960;2023-07-30T00:25:03;0.30;;;0.30;;
17725;SDS011;8983;53.156;17.960;2023-07-30T00:27:32;0.40;;;0.40;;
17725;SDS011;8983;53.156;17.960;2023-07-30T00:30:00;0.30;;;0.30;;
17725;SDS011;8983;53.156;17.960;2023-07-30T00:32:30;0.30;;;0.30;;
17725;SDS011;8983;53.156;17.960;2023-07-30T00:34:58;0.30;;;0.30;;
17725;SDS011;8983;53.156;17.960;2023-07-30T00:37:26;0.30;;;0.30;;
17725;SDS011;8983;53.156;17.960;2023-07-30T00:39:54;0.30;;;0.30;;
17725;SDS011;8983;53.156;17.960;2023-07-30T00:42:23;0.30;;;0.30;;
17725;SDS011;8983;53.156;17.960;2023-07-30T00:44:51;0.30;;;0.30;;
17725;SDS011;8983;53.156;17.960;2023-07-30T00:47:19;0.30;;;0.30;;
17725;SDS011;8983;53.156;17.960;2023-07-30T00:49:49;0.20;;;0.20;;
17725;SDS011;8983;53.156;17.960;2023-07-30T00:52:17;0.30;;;0.30;;
17725;SDS011;8983;53.156;17.960;2023-07-30T00:54:48;0.20;;;0.20;;
17725;SDS011;8983;53.156;17.960;2023-07-30T00:57:16;0.30;;;0.30;;
17725;SDS011;8983;53.156;17.960;2023-07-30T00:59:46;0.27;;;0.27;;
17725;SDS011;8983;53.156;17.960;2023-07-30T01:02:16;0.67;;;0.67;;
17725;SDS011;8983;53.156;17.960;2023-07-30T01:04:45;0.30;;;0.30;;
17725;SDS011;8983;53.156;17.960;2023-07-30T01:07:14;0.30;;;0.30;;
17725;SDS011;8983;53.156;17.960;2023-07-30T01:09:43;0.30;;;0.30;;
17725;SDS011;8983;53.156;17.960;2023-07-30T01:12:11;0.30;;;0.30;;
17725;SDS011;8983;53.156;17.960;2023-07-30T01:14:40;0.20;;;0.20;;
17725;SDS011;8983;53.156;17.960;2023-07-30T01:17:09;0.20;;;0.20;;
17725;SDS011;8983;53.156;17.960;2023-07-30T01:19:39;0.30;;;0.30;;
17725;SDS011;8983;53.156;17.960;2023-07-30T01:22:08;0.30;;;0.30;;
17725;SDS011;8983;53.156;17.960;2023-07-30T01:24:36;0.20;;;0.20;;
17725;SDS011;8983;53.156;17.960;2023-07-30T01:27:05;0.30;;;0.30;;
17725;SDS011;8983;53.156;17.960;2023-07-30T01:29:38;0.30;;;0.30;;
17725;SDS011;8983;53.156;17.960;2023-07-30T01:32:11;0.30;;;0.30;;
17725;SDS011;8983;53.156;17.960;2023-07-30T01:34:41;0.30;;;0.30;;
17725;SDS011;8983;53.156;17.960;2023-07-30T01:37:11;0.30;;;0.30;;
17725;SDS011;8983;53.156;17.960;2023-07-30T01:39:40;0.30;;;0.30;;
17725;SDS011;8983;53.156;17.960;2023-07-30T01:42:11;0.30;;;0.30;;
17725;SDS011;8983;53.156;17.960;2023-07-30T01:44:39;0.30;;;0.30;;
17725;SDS011;8983;53.156;17.960;2023-07-30T01:47:08;0.20;;;0.20;;
17725;SDS011;8983;53.156;17.960;2023-07-30T01:49:36;0.27;;;0.27;;
17725;SDS011;8983;53.156;17.960;2023-07-30T01:52:04;0.30;;;0.30;;
17725;SDS011;8983;53.156;17.960;2023-07-30T01:54:33;0.30;;;0.30;;
17725;SDS011;8983;53.156;17.960;2023-07-30T01:57:02;0.30;;;0.30;;
17725;SDS011;8983;53.156;17.960;2023-07-30T01:59:30;0.30;;;0.30;;
17725;SDS011;8983;53.156;17.960;2023-07-30T02:01:58;0.30;;;0.30;;
17725;SDS011;8983;53.156;17.960;2023-07-30T02:04:26;0.27;;;0.27;;
17725;SDS011;8983;53.156;17.960;2023-07-30T02:06:55;0.30;;;0.30;;
17725;SDS011;8983;53.156;17.960;2023-07-30T02:09:23;0.30;;;0.30;;
17725;SDS011;8983;53.156;17.960;2023-07-30T02:11:52;0.30;;;0.30;;
17725;SDS011;8983;53.156;17.960;2023-07-30T02:14:21;0.20;;;0.20;;
17725;SDS011;8983;53.156;17.960;2023-07-30T02:16:49;0.30;;;0.30;;
17725;SDS011;8983;53.156;17.960;2023-07-30T02:19:17;0.30;;;0.30;;
17725;SDS011;8983;53.156;17.960;2023-07-30T02:21:45;0.30;;;0.30;;
17725;SDS011;8983;53.156;17.960;2023-07-30T02:24:13;0.30;;;0.30;;
17725;SDS011;8983;53.156;17.960;2023-07-30T02:26:41;0.30;;;0.30;;
17725;SDS011;8983;53.156;17.960;2023-07-30T02:29:11;0.30;;;0.30;;
17725;SDS011;8983;53.156;17.960;2023-07-30T02:31:39;0.30;;;0.30;;
17725;SDS011;8983;53.156;17.960;2023-07-30T02:34:07;0.20;;;0.20;;
17725;SDS011;8983;53.156;17.960;2023-07-30T02:36:35;0.30;;;0.30;;
17725;SDS011;8983;53.156;17.960;2023-07-30T02:39:03;0.30;;;0.30;;
17725;SDS011;8983;53.156;17.960;2023-07-30T02:41:31;0.30;;;0.30;;
17725;SDS011;8983;53.156;17.960;2023-07-30T02:44:00;0.30;;;0.30;;
17725;SDS011;8983;53.156;17.960;2023-07-30T02:46:29;0.30;;;0.30;;
17725;SDS011;8983;53.156;17.960;2023-07-30T02:48:57;0.20;;;0.20;;
17725;SDS011;8983;53.156;17.960;2023-07-30T02:51:26;0.30;;;0.30;;
17725;SDS011;8983;53.156;17.960;2023-07-30T02:53:55;0.30;;;0.30;;
17725;SDS011;8983;53.156;17.960;2023-07-30T02:56:25;0.30;;;0.30;;
17725;SDS011;8983;53.156;17.960;2023-07-30T02:58:53;0.27;;;0.27;;
17725;SDS011;8983;53.156;17.960;2023-07-30T03:01:21;0.30;;;0.30;;
17725;SDS011;8983;53.156;17.960;2023-07-30T03:03:51;0.30;;;0.30;;
17725;SDS011;8983;53.156;17.960;2023-07-30T03:06:19;0.30;;;0.30;;
17725;SDS011;8983;53.156;17.960;2023-07-30T03:08:47;0.30;;;0.30;;
17725;SDS011;8983;53.156;17.960;2023-07-30T03:11:16;0.30;;;0.30;;
17725;SDS011;8983;53.156;17.960;2023-07-30T03:13:44;0.30;;;0.30;;
17725;SDS011;8983;53.156;17.960;2023-07-30T03:16:12;0.30;;;0.30;;
17725;SDS011;8983;53.156;17.960;2023-07-30T03:18:40;0.20;;;0.20;;
17725;SDS011;8983;53.156;17.960;2023-07-30T03:21:10;0.30;;;0.30;;
17725;SDS011;8983;53.156;17.960;2023-07-30T03:23:38;0.27;;;0.27;;
17725;SDS011;8983;53.156;17.960;2023-07-30T03:26:07;0.20;;;0.20;;
17725;SDS011;8983;53.156;17.960;2023-07-30T03:28:35;0.30;;;0.30;;
17725;SDS011;8983;53.156;17.960;2023-07-30T03:31:06;0.20;;;0.20;;
17725;SDS011;8983;53.156;17.960;2023-07-30T03:33:34;0.30;;;0.30;;
17725;SDS011;8983;53.156;17.960;2023-07-30T03:36:03;0.30;;;0.30;;
17725;SDS011;8983;53.156;17.960;2023-07-30T03:38:32;0.30;;;0.30;;
17725;SDS011;8983;53.156;17.960;2023-07-30T03:41:00;0.30;;;0.30;;
17725;SDS011;8983;53.156;17.960;2023-07-30T03:43:28;0.30;;;0.30;;
17725;SDS011;8983;53.156;17.960;2023-07-30T03:45:57;0.30;;;0.30;;
17725;SDS011;8983;53.156;17.960;2023-07-30T03:48:25;0.30;;;0.30;;
17725;SDS011;8983;53.156;17.960;2023-07-30T03:50:53;0.30;;;0.30;;
17725;SDS011;8983;53.156;17.960;2023-07-30T03:53:21;0.20;;;0.20;;
17725;SDS011;8983;53.156;17.960;2023-07-30T03:55:51;0.20;;;0.20;;
17725;SDS011;8983;53.156;17.960;2023-07-30T03:58:19;0.33;;;0.33;;
17725;SDS011;8983;53.156;17.960;2023-07-30T04:00:47;14.07;;;9.60;;
17725;SDS011;8983;53.156;17.960;2023-07-30T04:03:15;12.83;;;8.77;;
17725;SDS011;8983;53.156;17.960;2023-07-30T04:05:44;14.80;;;9.93;;
17725;SDS011;8983;53.156;17.960;2023-07-30T04:08:12;17.33;;;10.07;;
17725;SDS011;8983;53.156;17.960;2023-07-30T04:10:40;13.63;;;9.67;;
17725;SDS011;8983;53.156;17.960;2023-07-30T04:13:09;16.40;;;10.87;;
17725;SDS011;8983;53.156;17.960;2023-07-30T04:15:38;14.77;;;10.40;;
17725;SDS011;8983;53.156;17.960;2023-07-30T04:18:06;15.93;;;10.57;;
17725;SDS011;8983;53.156;17.960;2023-07-30T04:20:34;13.20;;;9.77;;
17725;SDS011;8983;53.156;17.960;2023-07-30T04:23:03;15.37;;;10.87;;
17725;SDS011;8983;53.156;17.960;2023-07-30T04:25:31;14.90;;;10.37;;
17725;SDS011;8983;53.156;17.960;2023-07-30T04:27:59;13.63;;;9.13;;
17725;SDS011;8983;53.156;17.960;2023-07-30T04:30:29;16.90;;;10.13;;
17725;SDS011;8983;53.156;17.960;2023-07-30T04:32:57;14.97;;;10.57;;
17725;SDS011;8983;53.156;17.960;2023-07-30T04:35:25;15.17;;;10.80;;
17725;SDS011;8983;53.156;17.960;2023-07-30T04:37:53;13.73;;;9.53;;
17725;SDS011;8983;53.156;17.960;2023-07-30T04:40:21;13.73;;;10.47;;
17725;SDS011;8983;53.156;17.960;2023-07-30T04:42:49;16.27;;;10.00;;
17725;SDS011;8983;53.156;17.960;2023-07-30T04:45:17;17.17;;;11.30;;
17725;SDS011;8983;53.156;17.960;2023-07-30T04:47:47;14.67;;;10.33;;
17725;SDS011;8983;53.156;17.960;2023-07-30T04:50:15;13.80;;;9.93;;
17725;SDS011;8983;53.156;17.960;2023-07-30T04:52:44;15.23;;;10.07;;
17725;SDS011;8983;53.156;17.960;2023-07-30T04:55:12;15.90;;;10.30;;
17725;SDS011;8983;53.156;17.960;2023-07-30T04:57:40;14.63;;;9.53;;
17725;SDS011;8983;53.156;17.960;2023-07-30T05:00:08;15.33;;;10.67;;
17725;SDS011;8983;53.156;17.960;2023-07-30T05:02:37;13.70;;;10.40;;
17725;SDS011;8983;53.156;17.960;2023-07-30T05:05:07;15.33;;;10.60;;
17725;SDS011;8983;53.156;17.960;2023-07-30T05:07:35;13.60;;;10.87;;
17725;SDS011;8983;53.156;17.960;2023-07-30T05:10:04;16.27;;;10.57;;
17725;SDS011;8983;53.156;17.960;2023-07-30T05:12:36;15.33;;;10.37;;
17725;SDS011;8983;53.156;17.960;2023-07-30T05:15:05;16.63;;;11.40;;
17725;SDS011;8983;53.156;17.960;2023-07-30T05:17:33;15.67;;;10.60;;
17725;SDS011;8983;53.156;17.960;2023-07-30T05:20:02;13.70;;;11.20;;
17725;SDS011;8983;53.156;17.960;2023-07-30T05:22:32;14.73;;;10.13;;
17725;SDS011;8983;53.156;17.960;2023-07-30T05:25:00;15.60;;;10.70;;
17725;SDS011;8983;53.156;17.960;2023-07-30T05:27:28;19.97;;;11.33;;
17725;SDS011;8983;53.156;17.960;2023-07-30T05:29:58;16.33;;;10.47;;
17725;SDS011;8983;53.156;17.960;2023-07-30T05:32:26;14.63;;;11.30;;
17725;SDS011;8983;53.156;17.960;2023-07-30T05:34:54;12.60;;;9.90;;
17725;SDS011;8983;53.156;17.960;2023-07-30T05:37:22;16.47;;;11.03;;
17725;SDS011;8983;53.156;17.960;2023-07-30T05:39:51;16.83;;;11.77;;
17725;SDS011;8983;53.156;17.960;2023-07-30T05:42:19;14.40;;;11.47;;
17725;SDS011;8983;53.156;17.960;2023-07-30T05:44:47;17.57;;;12.30;;
17725;SDS011;8983;53.156;17.960;2023-07-30T05:47:16;17.53;;;11.93;;
17725;SDS011;8983;53.156;17.960;2023-07-30T05:49:44;19.37;;;11.97;;
17725;SDS011;8983;53.156;17.960;2023-07-30T05:52:12;17.07;;;12.83;;
17725;SDS011;8983;53.156;17.960;2023-07-30T05:54:40;15.67;;;11.83;;
17725;SDS011;8983;53.156;17.960;2023-07-30T05:57:09;16.80;;;11.90;;
17725;SDS011;8983;53.156;17.960;2023-07-30T05:59:37;16.67;;;11.87;;
17725;SDS011;8983;53.156;17.960;2023-07-30T06:02:05;15.53;;;12.00;;
17725;SDS011;8983;53.156;17.960;2023-07-30T06:04:34;16.27;;;12.10;;
17725;SDS011;8983;53.156;17.960;2023-07-30T06:07:02;16.10;;;11.63;;
17725;SDS011;8983;53.156;17.960;2023-07-30T06:09:31;18.67;;;12.30;;
17725;SDS011;8983;53.156;17.960;2023-07-30T06:11:59;13.97;;;11.77;;
17725;SDS011;8983;53.156;17.960;2023-07-30T06:14:28;14.60;;;11.10;;
17725;SDS011;8983;53.156;17.960;2023-07-30T06:16:57;18.43;;;12.67;;
17725;SDS011;8983;53.156;17.960;2023-07-30T06:19:25;13.63;;;11.97;;
17725;SDS011;8983;53.156;17.960;2023-07-30T06:21:53;16.00;;;12.77;;
17725;SDS011;8983;53.156;17.960;2023-07-30T06:24:22;15.30;;;12.93;;
17725;SDS011;8983;53.156;17.960;2023-07-30T06:27:02;17.65;;;13.30;;
17725;SDS011;8983;53.156;17.960;2023-07-30T06:29:32;15.57;;;12.23;;
17725;SDS011;8983;53.156;17.960;2023-07-30T06:32:00;18.13;;;12.80;;
17725;SDS011;8983;53.156;17.960;2023-07-30T06:34:28;14.03;;;11.37;;
17725;SDS011;8983;53.156;17.960;2023-07-30T06:36:56;14.53;;;12.07;;
17725;SDS011;8983;53.156;17.960;2023-07-30T06:39:24;12.73;;;11.40;;
17725;SDS011;8983;53.156;17.960;2023-07-30T06:41:53;13.30;;;10.80;;
17725;SDS011;8983;53.156;17.960;2023-07-30T06:44:21;13.37;;;11.20;;
17725;SDS011;8983;53.156;17.960;2023-07-30T06:46:52;13.00;;;11.40;;
17725;SDS011;8983;53.156;17.960;2023-07-30T06:49:20;11.60;;;10.30;;
17725;SDS011;8983;53.156;17.960;2023-07-30T06:51:49;14.53;;;10.47;;
17725;SDS011;8983;53.156;17.960;2023-07-30T06:54:17;11.13;;;9.43;;
17725;SDS011;8983;53.156;17.960;2023-07-30T06:56:45;11.60;;;10.02;;
17725;SDS011;8983;53.156;17.960;2023-07-30T06:59:13;9.90;;;8.90;;
17725;SDS011;8983;53.156;17.960;2023-07-30T07:01:41;10.87;;;9.77;;
17725;SDS011;8983;53.156;17.960;2023-07-30T07:04:11;10.43;;;9.07;;
17725;SDS011;8983;53.156;17.960;2023-07-30T07:06:39;10.23;;;8.75;;
17725;SDS011;8983;53.156;17.960;2023-07-30T07:09:07;11.53;;;9.07;;
17725;SDS011;8983;53.156;17.960;2023-07-30T07:11:35;10.63;;;9.33;;
17725;SDS011;8983;53.156;17.960;2023-07-30T07:14:04;9.17;;;8.27;;
17725;SDS011;8983;53.156;17.960;2023-07-30T07:16:33;9.13;;;8.20;;
17725;SDS011;8983;53.156;17.960;2023-07-30T07:19:01;9.25;;;8.35;;
17725;SDS011;8983;53.156;17.960;2023-07-30T07:21:30;9.87;;;8.87;;
17725;SDS011;8983;53.156;17.960;2023-07-30T07:23:59;10.17;;;8.90;;
17725;SDS011;8983;53.156;17.960;2023-07-30T07:26:27;11.43;;;9.00;;
17725;SDS011;8983;53.156;17.960;2023-07-30T07:28:55;9.77;;;8.77;;
17725;SDS011;8983;53.156;17.960;2023-07-30T07:31:23;8.73;;;7.83;;
17725;SDS011;8983;53.156;17.960;2023-07-30T07:33:51;10.27;;;8.88;;
17725;SDS011;8983;53.156;17.960;2023-07-30T07:36:20;11.00;;;8.20;;
17725;SDS011;8983;53.156;17.960;2023-07-30T07:38:49;10.50;;;8.93;;
17725;SDS011;8983;53.156;17.960;2023-07-30T07:41:17;9.45;;;8.45;;
17725;SDS011;8983;53.156;17.960;2023-07-30T07:43:46;9.00;;;7.93;;
17725;SDS011;8983;53.156;17.960;2023-07-30T07:46:14;8.88;;;7.97;;
17725;SDS011;8983;53.156;17.960;2023-07-30T07:48:43;9.23;;;8.00;;
17725;SDS011;8983;53.156;17.960;2023-07-30T07:51:11;9.85;;;8.13;;
17725;SDS011;8983;53.156;17.960;2023-07-30T07:53:39;9.77;;;8.05;;
17725;SDS011;8983;53.156;17.960;2023-07-30T07:56:09;8.43;;;7.63;;
17725;SDS011;8983;53.156;17.960;2023-07-30T07:58:37;9.55;;;8.05;;
17725;SDS011;8983;53.156;17.960;2023-07-30T08:01:05;8.50;;;7.57;;
17725;SDS011;8983;53.156;17.960;2023-07-30T08:03:33;9.20;;;7.15;;
17725;SDS011;8983;53.156;17.960;2023-07-30T08:06:01;7.82;;;7.03;;
17725;SDS011;8983;53.156;17.960;2023-07-30T08:08:30;7.93;;;7.13;;
17725;SDS011;8983;53.156;17.960;2023-07-30T08:10:58;7.00;;;6.28;;
17725;SDS011;8983;53.156;17.960;2023-07-30T08:13:27;7.85;;;6.97;;
17725;SDS011;8983;53.156;17.960;2023-07-30T08:15:55;7.55;;;6.43;;
17725;SDS011;8983;53.156;17.960;2023-07-30T08:18:23;6.63;;;6.03;;
17725;SDS011;8983;53.156;17.960;2023-07-30T08:20:51;9.82;;;6.28;;
17725;SDS011;8983;53.156;17.960;2023-07-30T08:23:19;7.03;;;6.38;;
17725;SDS011;8983;53.156;17.960;2023-07-30T08:25:48;7.78;;;6.97;;
17725;SDS011;8983;53.156;17.960;2023-07-30T08:28:18;7.70;;;6.72;;
17725;SDS011;8983;53.156;17.960;2023-07-30T08:30:47;7.43;;;6.72;;
17725;SDS011;8983;53.156;17.960;2023-07-30T08:33:15;7.18;;;6.38;;
17725;SDS011;8983;53.156;17.960;2023-07-30T08:35:43;7.53;;;6.70;;
17725;SDS011;8983;53.156;17.960;2023-07-30T08:38:12;8.02;;;5.95;;
17725;SDS011;8983;53.156;17.960;2023-07-30T08:40:40;7.85;;;6.70;;
17725;SDS011;8983;53.156;17.960;2023-07-30T08:43:08;6.43;;;5.90;;
17725;SDS011;8983;53.156;17.960;2023-07-30T08:45:36;6.68;;;6.07;;
17725;SDS011;8983;53.156;17.960;2023-07-30T08:48:05;6.63;;;5.97;;
17725;SDS011;8983;53.156;17.960;2023-07-30T08:50:34;6.43;;;5.80;;
17725;SDS011;8983;53.156;17.960;2023-07-30T08:53:04;6.53;;;5.93;;
17725;SDS011;8983;53.156;17.960;2023-07-30T08:55:33;6.75;;;6.05;;
17725;SDS011;8983;53.156;17.960;2023-07-30T08:58:01;6.32;;;5.72;;
17725;SDS011;8983;53.156;17.960;2023-07-30T09:00:33;7.25;;;6.20;;
17725;SDS011;8983;53.156;17.960;2023-07-30T09:03:05;7.47;;;6.75;;
17725;SDS011;8983;53.156;17.960;2023-07-30T09:05:36;9.38;;;7.15;;
17725;SDS011;8983;53.156;17.960;2023-07-30T09:08:05;8.23;;;7.50;;
17725;SDS011;8983;53.156;17.960;2023-07-30T09:10:34;7.93;;;7.13;;
17725;SDS011;8983;53.156;17.960;2023-07-30T09:13:02;8.15;;;7.00;;
17725;SDS011;8983;53.156;17.960;2023-07-30T09:15:30;7.10;;;6.40;;
17725;SDS011;8983;53.156;17.960;2023-07-30T09:18:00;7.63;;;6.90;;
17725;SDS011;8983;53.156;17.960;2023-07-30T09:20:30;7.00;;;6.30;;
17725;SDS011;8983;53.156;17.960;2023-07-30T09:23:04;7.32;;;6.55;;
17725;SDS011;8983;53.156;17.960;2023-07-30T09:25:33;7.22;;;6.53;;
17725;SDS011;8983;53.156;17.960;2023-07-30T09:28:02;8.55;;;6.60;;
17725;SDS011;8983;53.156;17.960;2023-07-30T09:30:30;9.38;;;6.20;;
17725;SDS011;8983;53.156;17.960;2023-07-30T09:32:59;7.18;;;6.47;;
17725;SDS011;8983;53.156;17.960;2023-07-30T09:35:27;6.65;;;6.05;;
17725;SDS011;8983;53.156;17.960;2023-07-30T09:38:00;7.55;;;6.45;;
17725;SDS011;8983;53.156;17.960;2023-07-30T09:40:30;7.75;;;6.65;;
17725;SDS011;8983;53.156;17.960;2023-07-30T09:42:59;6.85;;;6.10;;
17725;SDS011;8983;53.156;17.960;2023-07-30T09:45:32;7.80;;;5.85;;
17725;SDS011;8983;53.156;17.960;2023-07-30T09:48:02;7.03;;;6.38;;
17725;SDS011;8983;53.156;17.960;2023-07-30T09:50:33;6.80;;;6.13;;
17725;SDS011;8983;53.156;17.960;2023-07-30T09:53:01;7.25;;;6.65;;
17725;SDS011;8983;53.156;17.960;2023-07-30T09:55:30;7.28;;;6.53;;
17725;SDS011;8983;53.156;17.960;2023-07-30T09:57:58;7.22;;;6.53;;
17725;SDS011;8983;53.156;17.960;2023-07-30T10:00:26;7.10;;;6.47;;
17725;SDS011;8983;53.156;17.960;2023-07-30T10:02:57;6.60;;;6.00;;
17725;SDS011;8983;53.156;17.960;2023-07-30T10:05:28;9.25;;;6.13;;
17725;SDS011;8983;53.156;17.960;2023-07-30T10:08:04;7.35;;;6.53;;
17725;SDS011;8983;53.156;17.960;2023-07-30T10:10:36;7.95;;;6.80;;
17725;SDS011;8983;53.156;17.960;2023-07-30T10:13:06;7.18;;;5.70;;
17725;SDS011;8983;53.156;17.960;2023-07-30T10:15:37;5.97;;;5.47;;
17725;SDS011;8983;53.156;17.960;2023-07-30T10:18:06;6.50;;;5.75;;
17725;SDS011;8983;53.156;17.960;2023-07-30T10:20:35;6.10;;;5.60;;
17725;SDS011;8983;53.156;17.960;2023-07-30T10:23:05;7.75;;;5.90;;
17725;SDS011;8983;53.156;17.960;2023-07-30T10:25:42;6.90;;;6.20;;
17725;SDS011;8983;53.156;17.960;2023-07-30T10:28:25;7.25;;;5.90;;
17725;SDS011;8983;53.156;17.960;2023-07-30T10:30:55;6.07;;;5.50;;
17725;SDS011;8983;53.156;17.960;2023-07-30T10:33:24;8.00;;;5.45;;
17725;SDS011;8983;53.156;17.960;2023-07-30T10:36:11;6.93;;;5.38;;
17725;SDS011;8983;53.156;17.960;2023-07-30T10:38:41;6.13;;;5.05;;
17725;SDS011;8983;53.156;17.960;2023-07-30T10:41:10;6.53;;;5.20;;
17725;SDS011;8983;53.156;17.960;2023-07-30T10:43:41;5.97;;;5.43;;
17725;SDS011;8983;53.156;17.960;2023-07-30T10:46:10;5.50;;;5.00;;
17725;SDS011;8983;53.156;17.960;2023-07-30T10:48:40;5.63;;;5.13;;
17725;SDS011;8983;53.156;17.960;2023-07-30T10:51:10;5.65;;;5.15;;
17725;SDS011;8983;53.156;17.960;2023-07-30T10:53:42;5.25;;;4.75;;
17725;SDS011;8983;53.156;17.960;2023-07-30T10:56:11;5.30;;;4.65;;
17725;SDS011;8983;53.156;17.960;2023-07-30T10:58:40;8.80;;;4.60;;
17725;SDS011;8983;53.156;17.960;2023-07-30T11:01:09;4.72;;;4.32;;
17725;SDS011;8983;53.156;17.960;2023-07-30T11:03:37;4.82;;;4.32;;
17725;SDS011;8983;53.156;17.960;2023-07-30T11:06:06;5.65;;;4.03;;
17725;SDS011;8983;53.156;17.960;2023-07-30T11:08:35;5.45;;;4.00;;
17725;SDS011;8983;53.156;17.960;2023-07-30T11:11:06;4.57;;;4.18;;
17725;SDS011;8983;53.156;17.960;2023-07-30T11:13:36;4.43;;;3.67;;
17725;SDS011;8983;53.156;17.960;2023-07-30T11:16:05;4.05;;;3.70;;
17725;SDS011;8983;53.156;17.960;2023-07-30T11:18:36;3.85;;;3.47;;
17725;SDS011;8983;53.156;17.960;2023-07-30T11:21:05;5.25;;;4.00;;
17725;SDS011;8983;53.156;17.960;2023-07-30T11:23:34;3.50;;;3.20;;
17725;SDS011;8983;53.156;17.960;2023-07-30T11:26:06;3.35;;;3.05;;
17725;SDS011;8983;53.156;17.960;2023-07-30T11:28:36;3.80;;;3.20;;
17725;SDS011;8983;53.156;17.960;2023-07-30T11:31:05;3.60;;;3.20;;
17725;SDS011;8983;53.156;17.960;2023-07-30T11:33:35;3.65;;;2.72;;
17725;SDS011;8983;53.156;17.960;2023-07-30T11:36:04;3.42;;;3.13;;
17725;SDS011;8983;53.156;17.960;2023-07-30T11:38:35;3.00;;;2.70;;
17725;SDS011;8983;53.156;17.960;2023-07-30T11:41:06;3.35;;;3.05;;
17725;SDS011;8983;53.156;17.960;2023-07-30T11:43:36;4.93;;;3.72;;
17725;SDS011;8983;53.156;17.960;2023-07-30T11:46:09;3.35;;;3.00;;
17725;SDS011;8983;53.156;17.960;2023-07-30T11:48:40;5.00;;;3.30;;
17725;SDS011;8983;53.156;17.960;2023-07-30T11:51:19;3.70;;;3.40;;
17725;SDS011;8983;53.156;17.960;2023-07-30T11:53:49;4.15;;;3.75;;
17725;SDS011;8983;53.156;17.960;2023-07-30T11:56:19;4.40;;;3.28;;
17725;SDS011;8983;53.156;17.960;2023-07-30T11:58:49;3.45;;;3.15;;
17725;SDS011;8983;53.156;17.960;2023-07-30T12:01:18;4.82;;;3.50;;
17725;SDS011;8983;53.156;17.960;2023-07-30T12:03:47;3.78;;;3.35;;
17725;SDS011;8983;53.156;17.960;2023-07-30T12:06:15;4.13;;;3.45;;
17725;SDS011;8983;53.156;17.960;2023-07-30T12:08:43;4.35;;;3.58;;
17725;SDS011;8983;53.156;17.960;2023-07-30T12:11:11;4.03;;;3.67;;
17725;SDS011;8983;53.156;17.960;2023-07-30T12:13:44;3.65;;;3.35;;
17725;SDS011;8983;53.156;17.960;2023-07-30T12:16:13;3.95;;;3.50;;
17725;SDS011;8983;53.156;17.960;2023-07-30T12:18:45;3.85;;;3.45;;
17725;SDS011;8983;53.156;17.960;2023-07-30T12:21:13;3.25;;;2.95;;
17725;SDS011;8983;53.156;17.960;2023-07-30T12:23:41;3.58;;;3.28;;
17725;SDS011;8983;53.156;17.960;2023-07-30T12:26:10;3.50;;;3.20;;
17725;SDS011;8983;53.156;17.960;2023-07-30T12:28:38;3.40;;;3.10;;
17725;SDS011;8983;53.156;17.960;2023-07-30T12:31:07;4.03;;;3.63;;
17725;SDS011;8983;53.156;17.960;2023-07-30T12:33:35;5.00;;;3.42;;
17725;SDS011;8983;53.156;17.960;2023-07-30T12:36:04;3.88;;;3.47;;
17725;SDS011;8983;53.156;17.960;2023-07-30T12:38:32;4.55;;;3.78;;
17725;SDS011;8983;53.156;17.960;2023-07-30T12:41:00;3.75;;;3.22;;
17725;SDS011;8983;53.156;17.960;2023-07-30T12:43:28;3.30;;;3.00;;
17725;SDS011;8983;53.156;17.960;2023-07-30T12:45:57;3.33;;;2.90;;
17725;SDS011;8983;53.156;17.960;2023-07-30T12:48:26;3.45;;;3.15;;
17725;SDS011;8983;53.156;17.960;2023-07-30T12:50:54;3.10;;;2.90;;
17725;SDS011;8983;53.156;17.960;2023-07-30T12:53:23;3.85;;;3.08;;
17725;SDS011;8983;53.156;17.960;2023-07-30T12:55:52;4.35;;;3.08;;
17725;SDS011;8983;53.156;17.960;2023-07-30T12:58:20;3.35;;;3.05;;
17725;SDS011;8983;53.156;17.960;2023-07-30T13:00:48;2.97;;;2.78;;
17725;SDS011;8983;53.156;17.960;2023-07-30T13:03:16;4.63;;;4.10;;
17725;SDS011;8983;53.156;17.960;2023-07-30T13:05:46;3.55;;;3.25;;
17725;SDS011;8983;53.156;17.960;2023-07-30T13:08:14;3.20;;;2.90;;
17725;SDS011;8983;53.156;17.960;2023-07-30T13:10:42;3.00;;;2.70;;
17725;SDS011;8983;53.156;17.960;2023-07-30T13:13:10;3.33;;;3.03;;
17725;SDS011;8983;53.156;17.960;2023-07-30T13:15:42;5.43;;;3.10;;
17725;SDS011;8983;53.156;17.960;2023-07-30T13:18:10;3.40;;;3.10;;
17725;SDS011;8983;53.156;17.960;2023-07-30T13:20:38;4.53;;;2.90;;
17725;SDS011;8983;53.156;17.960;2023-07-30T13:23:08;4.47;;;2.90;;
17725;SDS011;8983;53.156;17.960;2023-07-30T13:25:36;2.80;;;2.60;;
17725;SDS011;8983;53.156;17.960;2023-07-30T13:28:05;2.55;;;2.35;;
17725;SDS011;8983;53.156;17.960;2023-07-30T13:30:33;2.40;;;2.20;;
17725;SDS011;8983;53.156;17.960;2023-07-30T13:33:01;2.50;;;2.30;;
17725;SDS011;8983;53.156;17.960;2023-07-30T13:35:29;2.33;;;2.13;;
17725;SDS011;8983;53.156;17.960;2023-07-30T13:37:57;3.08;;;2.08;;
17725;SDS011;8983;53.156;17.960;2023-07-30T13:40:27;3.85;;;1.90;;
17725;SDS011;8983;53.156;17.960;2023-07-30T13:42:55;3.58;;;2.10;;
17725;SDS011;8983;53.156;17.960;2023-07-30T13:45:23;2.20;;;2.00;;
17725;SDS011;8983;53.156;17.960;2023-07-30T13:47:51;2.30;;;2.10;;
17725;SDS011;8983;53.156;17.960;2023-07-30T13:50:19;2.80;;;2.17;;
17725;SDS011;8983;53.156;17.960;2023-07-30T13:52:47;2.28;;;2.08;;
17725;SDS011;8983;53.156;17.960;2023-07-30T13:55:15;2.50;;;2.15;;
17725;SDS011;8983;53.156;17.960;2023-07-30T13:57:45;2.92;;;2.30;;
17725;SDS011;8983;53.156;17.960;2023-07-30T14:00:13;2.28;;;2.08;;
17725;SDS011;8983;53.156;17.960;2023-07-30T14:02:41;1.77;;;1.67;;
17725;SDS011;8983;53.156;17.960;2023-07-30T14:05:10;1.90;;;1.70;;
17725;SDS011;8983;53.156;17.960;2023-07-30T14:07:38;1.98;;;1.77;;
17725;SDS011;8983;53.156;17.960;2023-07-30T14:10:07;2.58;;;2.05;;
17725;SDS011;8983;53.156;17.960;2023-07-30T14:12:36;2.00;;;1.90;;
17725;SDS011;8983;53.156;17.960;2023-07-30T14:15:06;1.70;;;1.60;;
17725;SDS011;8983;53.156;17.960;2023-07-30T14:17:35;2.05;;;1.80;;
17725;SDS011;8983;53.156;17.960;2023-07-30T14:20:04;2.70;;;1.60;;
17725;SDS011;8983;53.156;17.960;2023-07-30T14:22:33;1.73;;;1.63;;
17725;SDS011;8983;53.156;17.960;2023-07-30T14:25:01;2.33;;;1.90;;
17725;SDS011;8983;53.156;17.960;2023-07-30T14:27:29;1.80;;;1.60;;
17725;SDS011;8983;53.156;17.960;2023-07-30T14:29:57;2.00;;;1.60;;
17725;SDS011;8983;53.156;17.960;2023-07-30T14:32:27;2.00;;;1.83;;
17725;SDS011;8983;53.156;17.960;2023-07-30T14:34:55;1.90;;;1.67;;
17725;SDS011;8983;53.156;17.960;2023-07-30T14:37:23;1.80;;;1.70;;
17725;SDS011;8983;53.156;17.960;2023-07-30T14:39:51;1.85;;;1.63;;
17725;SDS011;8983;53.156;17.960;2023-07-30T14:42:19;1.58;;;1.48;;
17725;SDS011;8983;53.156;17.960;2023-07-30T14:44:47;1.45;;;1.35;;
17725;SDS011;8983;53.156;17.960;2023-07-30T14:47:15;1.60;;;1.50;;
17725;SDS011;8983;53.156;17.960;2023-07-30T14:49:45;4.38;;;1.88;;
17725;SDS011;8983;53.156;17.960;2023-07-30T14:52:13;1.88;;;1.60;;